createdAt,value
2023-10-11T00:00:31.751Z,16.70
2023-10-11T00:03:07.492Z,16.80
2023-10-11T00:05:42.249Z,16.70
2023-10-11T00:08:17.992Z,16.70
2023-10-11T00:10:55.682Z,16.70
2023-10-11T00:13:23.942Z,16.60
2023-10-11T00:15:53.135Z,16.70
2023-10-11T00:18:28.378Z,16.70
2023-10-11T00:21:00.544Z,16.60
2023-10-11T00:23:29.326Z,16.60
2023-10-11T00:26:03.052Z,16.60
2023-10-11T00:28:33.088Z,16.60
2023-10-11T00:31:03.093Z,16.60
2023-10-11T00:33:38.906Z,16.60
2023-10-11T00:36:07.623Z,16.50
2023-10-11T00:38:45.167Z,16.50
2023-10-11T00:41:20.510Z,16.50
2023-10-11T00:43:54.724Z,16.50
2023-10-11T00:46:25.547Z,16.50
2023-10-11T00:48:54.704Z,16.50
2023-10-11T00:51:32.073Z,16.50
2023-10-11T00:54:06.271Z,16.40
2023-10-11T00:56:33.724Z,16.50
2023-10-11T00:59:04.787Z,16.40
2023-10-11T01:01:34.353Z,16.40
2023-10-11T01:04:02.071Z,16.40
2023-10-11T01:06:29.909Z,16.40
2023-10-11T01:08:57.005Z,16.40
2023-10-11T01:11:24.303Z,16.40
2023-10-11T01:13:53.861Z,16.40
2023-10-11T01:16:29.590Z,16.40
2023-10-11T01:18:56.416Z,16.40
2023-10-11T01:21:23.204Z,16.30
2023-10-11T01:23:50.001Z,16.30
2023-10-11T01:26:16.817Z,16.30
2023-10-11T01:28:49.181Z,16.40
2023-10-11T01:31:18.445Z,16.30
2023-10-11T01:33:51.372Z,16.30
2023-10-11T01:36:22.482Z,16.30
2023-10-11T01:38:49.295Z,16.30
2023-10-11T01:41:24.033Z,16.30
2023-10-11T01:43:51.761Z,16.30
2023-10-11T01:46:27.912Z,16.30
2023-10-11T01:48:56.651Z,16.30
2023-10-11T01:51:27.811Z,16.30
2023-10-11T01:54:01.471Z,16.20
2023-10-11T01:56:29.230Z,16.30
2023-10-11T01:59:03.278Z,16.20
2023-10-11T02:01:41.614Z,16.20
2023-10-11T02:04:17.597Z,16.20
2023-10-11T02:06:44.718Z,16.20
2023-10-11T02:09:12.870Z,16.10
2023-10-11T02:11:43.200Z,16.10
2023-10-11T02:14:11.023Z,16.10
2023-10-11T02:16:37.866Z,16.10
2023-10-11T02:19:06.516Z,16.00
2023-10-11T02:21:38.000Z,16.10
2023-10-11T02:24:05.772Z,16.00
2023-10-11T02:26:35.292Z,16.00
2023-10-11T02:29:07.639Z,16.00
2023-10-11T02:31:37.088Z,16.00
2023-10-11T02:34:15.764Z,16.00
2023-10-11T02:36:44.282Z,16.00
2023-10-11T02:39:21.517Z,16.00
2023-10-11T02:41:57.054Z,15.90
2023-10-11T02:44:24.454Z,15.90
2023-10-11T02:46:54.988Z,15.90
2023-10-11T02:49:22.337Z,15.90
2023-10-11T02:52:00.892Z,15.80
2023-10-11T02:54:43.461Z,15.80
2023-10-11T02:57:10.635Z,15.80
2023-10-11T02:59:37.845Z,15.80
2023-10-11T03:02:06.762Z,15.70
2023-10-11T03:04:36.174Z,15.70
2023-10-11T03:07:02.909Z,15.70
2023-10-11T03:09:31.327Z,15.80
2023-10-11T03:11:58.527Z,15.70
2023-10-11T03:14:26.238Z,15.70
2023-10-11T03:17:06.837Z,15.70
2023-10-11T03:19:36.178Z,15.60
2023-10-11T03:22:03.468Z,15.60
2023-10-11T03:24:34.510Z,15.70
2023-10-11T03:27:04.475Z,15.60
2023-10-11T03:29:32.117Z,15.60
2023-10-11T03:31:58.797Z,15.60
2023-10-11T03:34:30.130Z,15.60
2023-10-11T03:37:01.274Z,15.60
2023-10-11T03:39:37.388Z,15.50
2023-10-11T03:42:08.290Z,15.50
2023-10-11T03:44:37.402Z,15.60
2023-10-11T03:47:08.985Z,15.50
2023-10-11T03:49:48.653Z,15.50
2023-10-11T03:52:21.077Z,15.40
2023-10-11T03:54:48.537Z,15.40
2023-10-11T03:57:18.730Z,15.40
2023-10-11T03:59:49.712Z,15.30
2023-10-11T04:02:18.781Z,15.30
2023-10-11T04:04:50.036Z,15.30
2023-10-11T04:07:18.477Z,15.30
2023-10-11T04:09:48.316Z,15.30
2023-10-11T04:12:15.749Z,15.30
2023-10-11T04:14:47.044Z,15.30
2023-10-11T04:17:27.672Z,15.30
2023-10-11T04:20:17.426Z,15.30
2023-10-11T04:22:58.746Z,15.20
2023-10-11T04:25:26.894Z,15.30
2023-10-11T04:27:57.951Z,15.20
2023-10-11T04:30:28.004Z,15.20
2023-10-11T04:32:58.686Z,15.30
2023-10-11T04:35:38.084Z,15.30
2023-10-11T04:38:05.846Z,15.30
2023-10-11T04:40:35.213Z,15.30
2023-10-11T04:43:06.297Z,15.20
2023-10-11T04:48:30.523Z,15.20
2023-10-11T04:51:28.572Z,15.20
2023-10-11T04:53:57.345Z,15.20
2023-10-11T04:56:44.813Z,15.20
2023-10-11T04:59:21.411Z,15.20
2023-10-11T05:01:48.142Z,15.10
2023-10-11T05:04:16.727Z,15.20
2023-10-11T05:06:45.134Z,15.20
2023-10-11T05:09:18.703Z,15.20
2023-10-11T05:11:51.149Z,15.20
2023-10-11T05:14:30.442Z,15.20
2023-10-11T05:17:16.531Z,15.20
2023-10-11T05:19:58.119Z,15.20
2023-10-11T05:22:28.130Z,15.20
2023-10-11T05:25:01.836Z,15.20
2023-10-11T05:27:35.541Z,15.20
2023-10-11T05:30:13.053Z,15.20
2023-10-11T05:33:16.374Z,15.30
2023-10-11T05:36:01.958Z,15.20
2023-10-11T05:38:47.278Z,15.20
2023-10-11T05:41:33.869Z,15.20
2023-10-11T05:44:19.955Z,15.20
2023-10-11T05:47:05.494Z,15.30
2023-10-11T05:49:51.499Z,15.30
2023-10-11T05:52:18.627Z,15.40
2023-10-11T05:54:46.937Z,15.40
2023-10-11T05:57:15.057Z,15.40
2023-10-11T05:59:44.938Z,15.40
2023-10-11T06:02:20.677Z,15.40
2023-10-11T06:04:48.090Z,15.40
2023-10-11T06:07:17.605Z,15.30
2023-10-11T06:09:46.939Z,15.30
2023-10-11T06:12:27.475Z,15.20
2023-10-11T06:14:55.340Z,15.20
2023-10-11T06:17:22.980Z,15.30
2023-10-11T06:19:55.183Z,15.30
2023-10-11T06:22:23.747Z,15.30
2023-10-11T06:24:50.694Z,15.30
2023-10-11T06:27:36.030Z,15.40
2023-10-11T06:30:08.075Z,15.30
2023-10-11T06:32:37.157Z,15.40
2023-10-11T06:35:06.793Z,15.40
2023-10-11T06:37:36.842Z,15.40
2023-10-11T06:40:03.838Z,15.40
2023-10-11T06:42:32.788Z,15.40
2023-10-11T06:45:07.092Z,15.40
2023-10-11T06:47:36.984Z,15.40
2023-10-11T06:50:14.815Z,15.40
2023-10-11T06:52:45.703Z,15.50
2023-10-11T06:55:15.218Z,15.40
2023-10-11T06:57:51.925Z,15.60
2023-10-11T07:00:38.128Z,15.60
2023-10-11T07:03:23.399Z,15.60
2023-10-11T07:05:51.674Z,15.70
2023-10-11T07:08:20.194Z,15.70
2023-10-11T07:11:23.899Z,15.80
2023-10-11T07:14:02.123Z,15.80
2023-10-11T07:16:30.263Z,15.90
2023-10-11T07:18:58.309Z,15.90
2023-10-11T07:21:49.336Z,15.90
2023-10-11T07:24:21.086Z,15.90
2023-10-11T07:26:48.282Z,15.80
2023-10-11T07:29:15.638Z,15.80
2023-10-11T07:31:52.457Z,15.80
2023-10-11T07:34:23.890Z,15.80
2023-10-11T07:36:50.778Z,15.80
2023-10-11T07:39:28.105Z,15.80
2023-10-11T07:42:09.360Z,15.80
2023-10-11T07:44:38.327Z,15.80
2023-10-11T07:47:08.021Z,15.80
2023-10-11T07:49:41.413Z,15.90
2023-10-11T07:52:14.776Z,15.90
2023-10-11T07:54:44.387Z,16.00
2023-10-11T07:57:15.496Z,16.00
2023-10-11T07:59:43.112Z,16.00
2023-10-11T08:02:27.426Z,16.00
2023-10-11T08:04:55.124Z,16.00
2023-10-11T08:07:23.649Z,16.00
2023-10-11T08:09:54.147Z,16.00
2023-10-11T08:12:24.927Z,16.00
2023-10-11T08:14:54.957Z,16.10
2023-10-11T08:17:22.769Z,16.20
2023-10-11T08:19:55.278Z,16.30
2023-10-11T08:22:26.338Z,16.20
2023-10-11T08:25:00.351Z,16.20
2023-10-11T08:27:30.959Z,16.20
2023-10-11T08:30:18.708Z,16.20
2023-10-11T08:32:47.541Z,16.20
2023-10-11T08:35:27.383Z,16.20
2023-10-11T08:37:55.194Z,16.20
2023-10-11T08:40:30.599Z,16.20
2023-10-11T08:43:01.187Z,16.20
2023-10-11T08:45:35.030Z,16.20
2023-10-11T08:48:06.942Z,16.20
2023-10-11T08:50:38.484Z,16.20
2023-10-11T08:53:09.824Z,16.30
2023-10-11T08:55:40.686Z,16.30
2023-10-11T08:58:13.958Z,16.30
2023-10-11T09:00:48.317Z,16.30
2023-10-11T09:03:24.579Z,16.20
2023-10-11T09:06:01.317Z,16.30
2023-10-11T09:08:34.945Z,16.30
2023-10-11T09:11:27.451Z,16.10
2023-10-11T09:13:54.518Z,16.20
2023-10-11T09:16:36.626Z,16.20
2023-10-11T09:19:10.569Z,16.20
2023-10-11T09:21:40.175Z,16.20
2023-10-11T09:24:27.343Z,16.20
2023-10-11T09:27:19.678Z,16.30
2023-10-11T09:29:49.204Z,16.30
2023-10-11T09:32:20.837Z,16.30
2023-10-11T09:34:48.508Z,16.30
2023-10-11T09:37:15.439Z,16.30
2023-10-11T09:39:43.651Z,16.30
2023-10-11T09:42:15.770Z,16.20
2023-10-11T09:44:47.461Z,16.30
2023-10-11T09:47:18.234Z,16.30
2023-10-11T09:49:47.800Z,16.30
2023-10-11T09:52:19.455Z,16.20
2023-10-11T09:54:54.704Z,16.20
2023-10-11T09:57:24.475Z,16.20
2023-10-11T10:00:21.221Z,16.20
2023-10-11T10:02:52.474Z,16.30
2023-10-11T10:05:24.137Z,16.30
2023-10-11T10:07:54.003Z,16.30
2023-10-11T10:10:27.488Z,16.20
2023-10-11T10:12:59.354Z,16.40
2023-10-11T10:15:39.471Z,16.40
2023-10-11T10:18:14.252Z,16.40
2023-10-11T10:20:45.633Z,16.50
2023-10-11T10:23:17.487Z,16.50
2023-10-11T10:26:03.260Z,16.50
2023-10-11T10:28:46.717Z,16.50
2023-10-11T10:31:18.743Z,16.50
2023-10-11T10:33:53.305Z,16.50
2023-10-11T10:36:23.280Z,16.50
2023-10-11T10:39:02.178Z,16.50
2023-10-11T10:41:32.111Z,16.60
2023-10-11T10:44:18.859Z,16.70
2023-10-11T10:46:56.334Z,16.70
2023-10-11T10:49:43.487Z,16.80
2023-10-11T10:52:17.626Z,16.80
2023-10-11T10:55:02.436Z,16.90
2023-10-11T10:57:34.153Z,17.00
2023-10-11T11:00:06.524Z,17.00
2023-10-11T11:02:34.559Z,17.20
2023-10-11T11:05:02.199Z,17.30
2023-10-11T11:07:29.143Z,17.40
2023-10-11T11:09:56.074Z,17.60
2023-10-11T11:12:30.567Z,17.70
2023-10-11T11:14:59.966Z,17.70
2023-10-11T11:17:48.838Z,17.60
2023-10-11T11:20:28.685Z,17.70
2023-10-11T11:22:56.207Z,17.80
2023-10-11T11:25:27.891Z,17.80
2023-10-11T11:28:06.047Z,18.00
2023-10-11T11:30:38.008Z,17.90
2023-10-11T11:33:20.587Z,17.90
2023-10-11T11:35:53.267Z,18.00
2023-10-11T11:38:22.854Z,18.00
2023-10-11T11:40:52.919Z,18.00
2023-10-11T11:43:23.741Z,18.00
2023-10-11T11:45:58.633Z,18.10
2023-10-11T11:48:25.936Z,18.00
2023-10-11T11:50:57.476Z,18.00
2023-10-11T11:53:24.675Z,18.00
2023-10-11T11:55:51.468Z,18.10
2023-10-11T11:58:18.712Z,18.10
2023-10-11T12:01:00.854Z,18.00
2023-10-11T12:03:27.830Z,18.10
2023-10-11T12:05:54.593Z,18.20
2023-10-11T12:08:21.565Z,18.10
2023-10-11T12:10:51.414Z,18.20
2023-10-11T12:13:29.660Z,18.20
2023-10-11T12:15:57.083Z,18.30
2023-10-11T12:18:33.510Z,18.30
2023-10-11T12:21:16.723Z,18.30
2023-10-11T12:23:49.996Z,18.40
2023-10-11T12:26:21.706Z,18.50
2023-10-11T12:28:49.699Z,18.50
2023-10-11T12:31:19.531Z,18.50
2023-10-11T12:33:46.439Z,18.60
2023-10-11T12:36:13.308Z,18.60
2023-10-11T12:38:41.145Z,18.70
2023-10-11T12:41:15.411Z,18.70
2023-10-11T12:43:42.392Z,18.90
2023-10-11T12:46:10.962Z,18.90
2023-10-11T12:48:39.497Z,18.90
2023-10-11T12:51:06.584Z,18.90
2023-10-11T12:53:33.370Z,19.00
2023-10-11T12:56:00.189Z,19.00
2023-10-11T12:58:29.127Z,18.90
2023-10-11T13:01:06.779Z,19.00
2023-10-11T13:03:39.282Z,19.00
2023-10-11T13:06:10.941Z,19.00
2023-10-11T13:08:41.178Z,19.00
2023-10-11T13:11:13.040Z,19.00
2023-10-11T13:13:41.931Z,19.00
2023-10-11T13:16:10.605Z,19.00
2023-10-11T13:18:38.632Z,19.00
2023-10-11T13:21:06.896Z,19.10
2023-10-11T13:23:35.716Z,19.00
2023-10-11T13:26:08.707Z,19.00
2023-10-11T13:28:41.307Z,19.00
2023-10-11T13:31:10.594Z,19.00
2023-10-11T13:33:38.045Z,19.00
2023-10-11T13:36:09.819Z,19.00
2023-10-11T13:38:38.290Z,19.00
2023-10-11T13:41:08.511Z,18.90
2023-10-11T13:43:38.681Z,19.00
2023-10-11T13:46:08.975Z,18.90
2023-10-11T13:48:41.263Z,18.90
2023-10-11T13:51:10.679Z,18.90
2023-10-11T13:53:42.449Z,18.90
2023-10-11T13:56:22.891Z,19.00
2023-10-11T13:58:52.847Z,19.00
2023-10-11T14:01:38.986Z,19.00
2023-10-11T14:04:14.717Z,19.10
2023-10-11T14:06:45.221Z,19.20
2023-10-11T14:09:19.424Z,19.20
2023-10-11T14:11:49.425Z,19.20
2023-10-11T14:14:23.994Z,19.20
2023-10-11T14:16:51.378Z,19.20
2023-10-11T14:19:19.266Z,19.20
2023-10-11T14:21:49.236Z,19.20
2023-10-11T14:24:20.113Z,19.10
2023-10-11T14:26:47.847Z,19.00
2023-10-11T14:29:14.698Z,19.00
2023-10-11T14:31:43.425Z,19.00
2023-10-11T14:34:11.070Z,19.00
2023-10-11T14:36:37.823Z,19.00
2023-10-11T14:39:10.233Z,19.00
2023-10-11T14:41:38.446Z,19.00
2023-10-11T14:44:07.942Z,18.90
2023-10-11T14:46:36.605Z,19.00
2023-10-11T14:49:04.900Z,19.00
2023-10-11T14:51:31.807Z,19.10
2023-10-11T14:53:58.624Z,19.20
2023-10-11T14:56:25.325Z,19.20
2023-10-11T14:58:52.077Z,19.20
2023-10-11T15:01:20.847Z,19.20
2023-10-11T15:03:48.739Z,19.10
2023-10-11T15:06:15.733Z,19.10
2023-10-11T15:08:44.625Z,19.00
2023-10-11T15:11:15.294Z,19.00
2023-10-11T15:13:42.025Z,19.00
2023-10-11T15:16:08.885Z,19.00
2023-10-11T15:18:36.392Z,19.00
2023-10-11T15:21:05.173Z,19.00
2023-10-11T15:23:33.257Z,19.00
2023-10-11T15:26:02.689Z,19.00
2023-10-11T15:28:31.936Z,19.00
2023-10-11T15:31:01.514Z,18.90
2023-10-11T15:33:28.538Z,18.90
2023-10-11T15:35:59.784Z,18.90
2023-10-11T15:38:27.410Z,18.70
2023-10-11T15:41:00.629Z,18.70
2023-10-11T15:43:29.738Z,18.80
2023-10-11T15:45:56.582Z,18.70
2023-10-11T15:48:23.770Z,18.70
2023-10-11T15:50:50.793Z,18.70
2023-10-11T15:53:17.769Z,18.80
2023-10-11T15:55:44.810Z,18.70
2023-10-11T15:58:11.647Z,18.60
2023-10-11T16:00:42.804Z,18.60
2023-10-11T16:03:11.650Z,18.60
2023-10-11T16:05:39.044Z,18.60
2023-10-11T16:08:06.659Z,18.60
2023-10-11T16:10:34.466Z,18.60
2023-10-11T16:13:02.554Z,18.60
2023-10-11T16:15:32.513Z,18.60
2023-10-11T16:17:59.763Z,18.50
2023-10-11T16:20:26.819Z,18.50
2023-10-11T16:22:53.922Z,18.50
2023-10-11T16:25:20.922Z,18.50
2023-10-11T16:27:48.722Z,18.30
2023-10-11T16:30:15.977Z,18.40
2023-10-11T16:32:43.286Z,18.30
2023-10-11T16:35:14.705Z,18.30
2023-10-11T16:37:43.147Z,18.20
2023-10-11T16:40:17.420Z,18.20
2023-10-11T16:42:46.122Z,18.20
2023-10-11T16:45:15.727Z,18.20
2023-10-11T16:47:47.821Z,18.10
2023-10-11T16:50:17.835Z,18.20
2023-10-11T16:52:44.977Z,18.20
2023-10-11T16:55:12.332Z,18.20
2023-10-11T16:57:40.269Z,18.20
2023-10-11T17:00:16.710Z,18.20
2023-10-11T17:02:45.388Z,18.10
2023-10-11T17:05:14.703Z,18.10
2023-10-11T17:07:41.994Z,18.00
2023-10-11T17:10:11.170Z,18.00
2023-10-11T17:12:41.617Z,18.00
2023-10-11T17:15:11.307Z,17.90
2023-10-11T17:17:39.281Z,17.90
2023-10-11T17:20:15.879Z,17.90
2023-10-11T17:22:44.314Z,17.90
2023-10-11T17:25:11.726Z,17.90
2023-10-11T17:27:38.915Z,17.80
2023-10-11T17:30:07.154Z,17.80
2023-10-11T17:32:34.493Z,17.80
2023-10-11T17:35:07.007Z,17.80
2023-10-11T17:37:34.829Z,17.80
2023-10-11T17:40:01.679Z,17.80
2023-10-11T17:42:28.422Z,17.70
2023-10-11T17:44:55.318Z,17.70
2023-10-11T17:47:22.057Z,17.70
2023-10-11T17:49:49.256Z,17.80
2023-10-11T17:52:15.911Z,17.70
2023-10-11T17:54:43.837Z,17.70
2023-10-11T17:57:10.758Z,17.70
2023-10-11T17:59:37.548Z,17.70
2023-10-11T18:02:04.428Z,17.70
2023-10-11T18:04:31.454Z,17.60
2023-10-11T18:06:59.175Z,17.60
2023-10-11T18:09:26.489Z,17.50
2023-10-11T18:11:54.119Z,17.50
2023-10-11T18:14:21.360Z,17.50
2023-10-11T18:16:48.887Z,17.50
2023-10-11T18:19:16.047Z,17.50
2023-10-11T18:21:44.930Z,17.50
2023-10-11T18:24:11.826Z,17.50
2023-10-11T18:26:38.566Z,17.50
2023-10-11T18:29:06.091Z,17.50
2023-10-11T18:31:32.784Z,17.50
2023-10-11T18:33:59.515Z,17.40
2023-10-11T18:36:26.927Z,17.50
2023-10-11T18:38:53.626Z,17.50
2023-10-11T18:41:20.422Z,17.50
2023-10-11T18:43:47.130Z,17.50
2023-10-11T18:46:14.427Z,17.40
2023-10-11T18:48:41.609Z,17.50
2023-10-11T18:51:13.493Z,17.50
2023-10-11T18:53:40.386Z,17.50
2023-10-11T18:56:07.073Z,17.40
2023-10-11T18:58:33.754Z,17.40
2023-10-11T19:01:00.485Z,17.40
2023-10-11T19:03:30.048Z,17.40
2023-10-11T19:06:00.051Z,17.50
2023-10-11T19:08:28.467Z,17.30
2023-10-11T19:10:55.702Z,17.40
2023-10-11T19:13:22.752Z,17.50
2023-10-11T19:15:49.584Z,17.40
2023-10-11T19:18:18.125Z,17.30
2023-10-11T19:20:45.924Z,17.30
2023-10-11T19:23:13.734Z,17.30
2023-10-11T19:25:40.565Z,17.20
2023-10-11T19:28:09.240Z,17.20
2023-10-11T19:30:36.124Z,17.20
2023-10-11T19:33:02.997Z,17.20
2023-10-11T19:35:29.754Z,17.10
2023-10-11T19:37:56.529Z,17.10
2023-10-11T19:40:27.033Z,17.10
2023-10-11T19:42:55.295Z,17.10
2023-10-11T19:45:24.177Z,17.20
2023-10-11T19:47:51.868Z,17.20
2023-10-11T19:50:20.118Z,17.20
2023-10-11T19:52:51.404Z,17.10
2023-10-11T19:55:20.088Z,17.10
2023-10-11T19:57:47.908Z,17.20
2023-10-11T20:00:19.915Z,17.10
2023-10-11T20:02:48.021Z,17.10
2023-10-11T20:05:17.501Z,17.10
2023-10-11T20:07:48.365Z,17.10
2023-10-11T20:10:16.328Z,17.10
2023-10-11T20:12:46.437Z,17.10
2023-10-11T20:15:14.753Z,17.20
2023-10-11T20:17:53.057Z,17.00
2023-10-11T20:20:21.199Z,17.10
2023-10-11T20:22:51.885Z,17.10
2023-10-11T20:25:21.596Z,17.10
2023-10-11T20:27:50.507Z,17.10
2023-10-11T20:30:22.047Z,17.10
2023-10-11T20:32:53.039Z,17.10
2023-10-11T20:35:24.676Z,17.00
2023-10-11T20:37:56.401Z,17.10
2023-10-11T20:40:23.876Z,17.00
2023-10-11T20:42:55.230Z,17.00
2023-10-11T20:45:23.704Z,17.00
2023-10-11T20:47:53.570Z,17.00
2023-10-11T20:50:22.246Z,16.90
2023-10-11T20:52:53.318Z,16.90
2023-10-11T20:55:24.435Z,16.80
2023-10-11T20:58:30.851Z,16.90
2023-10-11T21:00:57.898Z,16.90
2023-10-11T21:03:24.998Z,16.80
2023-10-11T21:05:53.755Z,16.80
2023-10-11T21:08:21.659Z,16.90
2023-10-11T21:10:50.129Z,16.90
2023-10-11T21:13:22.453Z,16.90
2023-10-11T21:15:50.079Z,16.90
2023-10-11T21:18:20.474Z,16.90
2023-10-11T21:20:52.613Z,16.90
2023-10-11T21:23:19.822Z,16.90
2023-10-11T21:25:57.148Z,16.90
2023-10-11T21:28:25.254Z,16.80
2023-10-11T21:30:52.386Z,16.80
2023-10-11T21:33:19.476Z,16.80
2023-10-11T21:35:46.575Z,16.80
2023-10-11T21:38:15.382Z,16.80
2023-10-11T21:40:45.759Z,16.80
2023-10-11T21:43:13.708Z,16.90
2023-10-11T21:45:41.577Z,16.80
2023-10-11T21:48:11.059Z,16.80
2023-10-11T21:50:38.486Z,16.80
2023-10-11T21:53:05.579Z,16.80
2023-10-11T21:55:33.466Z,16.80
2023-10-11T21:58:00.534Z,16.80
2023-10-11T22:00:47.710Z,16.80
2023-10-11T22:03:19.858Z,16.80
2023-10-11T22:05:55.184Z,16.80
2023-10-11T22:08:22.974Z,16.70
2023-10-11T22:10:51.641Z,16.80
2023-10-11T22:13:22.068Z,16.70
2023-10-11T22:15:50.112Z,16.70
2023-10-11T22:18:19.959Z,16.70
2023-10-11T22:20:46.961Z,16.70
2023-10-11T22:23:14.360Z,16.60
2023-10-11T22:25:42.487Z,16.80
2023-10-11T22:28:10.187Z,16.70
2023-10-11T22:30:43.779Z,16.70
2023-10-11T22:33:11.077Z,16.80
2023-10-11T22:35:39.399Z,16.70
2023-10-11T22:38:08.099Z,16.70
2023-10-11T22:40:38.597Z,16.80
2023-10-11T22:43:21.400Z,16.70
2023-10-11T22:45:53.688Z,16.60
2023-10-11T22:48:20.939Z,16.70
2023-10-11T22:50:48.105Z,16.70
2023-10-11T22:53:15.040Z,16.60
2023-10-11T22:55:42.491Z,16.50
2023-10-11T22:58:09.633Z,16.60
2023-10-11T23:00:36.809Z,16.60
2023-10-11T23:03:04.657Z,16.60
2023-10-11T23:05:32.167Z,16.60
2023-10-11T23:07:59.369Z,16.60
2023-10-11T23:10:27.552Z,16.60
2023-10-11T23:12:57.925Z,16.60
2023-10-11T23:15:34.859Z,16.70
2023-10-11T23:18:14.890Z,16.60
2023-10-11T23:21:03.239Z,16.60
2023-10-11T23:23:40.160Z,16.60
2023-10-11T23:26:07.461Z,16.70
2023-10-11T23:28:36.873Z,16.60
2023-10-11T23:31:04.604Z,16.70
2023-10-11T23:33:35.108Z,16.70
2023-10-11T23:36:11.782Z,16.60
2023-10-11T23:38:51.240Z,16.50
2023-10-11T23:41:20.937Z,16.30
2023-10-11T23:44:00.200Z,16.20
2023-10-11T23:46:31.110Z,16.10
2023-10-11T23:49:08.115Z,16.00
2023-10-11T23:51:40.402Z,15.90
2023-10-11T23:54:14.004Z,15.80
2023-10-11T23:56:46.803Z,15.70
2023-10-11T23:59:15.166Z,15.60
